createdAt,value
2019-02-04T00:00:11.030Z,10.60
2019-02-04T00:02:54.943Z,12.77
2019-02-04T00:05:51.624Z,12.30
2019-02-04T00:08:24.856Z,13.07
2019-02-04T00:11:16.370Z,13.80
2019-02-04T00:14:16.910Z,14.03
2019-02-04T00:16:47.511Z,14.33
2019-02-04T00:19:20.043Z,14.87
2019-02-04T00:21:57.404Z,14.43
2019-02-04T00:24:32.184Z,12.63
2019-02-04T00:27:25.904Z,14.63
2019-02-04T00:30:22.546Z,13.30
2019-02-04T00:33:33.395Z,14.13
2019-02-04T00:36:07.063Z,14.20
2019-02-04T00:38:42.272Z,14.00
2019-02-04T00:41:15.888Z,15.53
2019-02-04T00:43:54.339Z,14.50
2019-02-04T00:46:37.941Z,15.20
2019-02-04T00:49:12.792Z,15.73
2019-02-04T00:51:45.437Z,13.30
2019-02-04T00:54:35.188Z,13.50
2019-02-04T00:57:13.375Z,17.17
2019-02-04T01:00:01.991Z,14.17
2019-02-04T01:02:36.120Z,14.27
2019-02-04T01:05:15.447Z,14.83
2019-02-04T01:07:50.474Z,16.37
2019-02-04T01:10:30.630Z,17.20
2019-02-04T01:13:06.395Z,17.03
2019-02-04T01:15:46.276Z,17.10
2019-02-04T01:18:18.411Z,16.47
2019-02-04T01:20:55.617Z,18.17
2019-02-04T01:23:27.747Z,17.60
2019-02-04T01:26:09.633Z,16.33
2019-02-04T01:28:48.337Z,16.60
2019-02-04T01:31:23.351Z,18.70
2019-02-04T01:34:16.664Z,18.60
2019-02-04T01:36:56.633Z,18.03
2019-02-04T01:39:27.723Z,19.80
2019-02-04T01:42:06.525Z,20.17
2019-02-04T01:44:54.354Z,23.23
2019-02-04T01:47:41.699Z,21.87
2019-02-04T01:50:20.136Z,21.47
2019-02-04T01:52:56.484Z,19.37
2019-02-04T01:55:31.078Z,18.70
2019-02-04T01:58:04.334Z,19.17
2019-02-04T02:00:52.386Z,16.60
2019-02-04T02:03:26.193Z,16.93
2019-02-04T02:05:58.157Z,17.83
2019-02-04T02:08:32.016Z,18.43
2019-02-04T02:11:06.246Z,18.20
2019-02-04T02:13:48.717Z,18.80
2019-02-04T02:16:31.412Z,16.70
2019-02-04T02:19:03.272Z,17.10
2019-02-04T02:21:44.949Z,18.23
2019-02-04T02:24:18.708Z,19.03
2019-02-04T02:26:58.213Z,17.80
2019-02-04T02:29:38.951Z,17.23
2019-02-04T02:32:17.463Z,18.47
2019-02-04T02:34:50.904Z,18.80
2019-02-04T02:37:23.539Z,18.50
2019-02-04T02:40:01.291Z,17.93
2019-02-04T02:42:42.209Z,18.07
2019-02-04T02:45:41.618Z,19.47
2019-02-04T02:48:17.528Z,19.80
2019-02-04T02:50:53.398Z,18.73
2019-02-04T02:53:28.378Z,21.70
2019-02-04T02:56:10.746Z,20.87
2019-02-04T02:58:49.747Z,20.00
2019-02-04T03:01:33.704Z,22.45
2019-02-04T03:04:22.542Z,20.73
2019-02-04T03:06:57.848Z,24.47
2019-02-04T03:09:32.330Z,20.80
2019-02-04T03:12:07.453Z,20.60
2019-02-04T03:14:42.421Z,23.65
2019-02-04T03:17:18.971Z,21.80
2019-02-04T03:19:51.502Z,22.10
2019-02-04T03:22:31.352Z,21.03
2019-02-04T03:25:08.301Z,22.60
2019-02-04T03:27:42.741Z,21.70
2019-02-04T03:30:20.814Z,19.50
2019-02-04T03:33:13.010Z,20.23
2019-02-04T03:35:48.412Z,22.00
2019-02-04T03:38:25.966Z,22.43
2019-02-04T03:40:57.460Z,20.97
2019-02-04T03:43:32.391Z,21.60
2019-02-04T03:46:09.432Z,21.43
2019-02-04T03:48:53.920Z,21.13
2019-02-04T03:51:27.544Z,20.30
2019-02-04T03:54:05.651Z,22.77
2019-02-04T03:56:44.529Z,22.00
2019-02-04T03:59:20.518Z,21.33
2019-02-04T04:01:58.362Z,22.30
2019-02-04T04:04:29.744Z,19.13
2019-02-04T04:07:04.320Z,21.00
2019-02-04T04:09:39.944Z,20.70
2019-02-04T04:12:12.035Z,21.93
2019-02-04T04:14:54.478Z,20.33
2019-02-04T04:17:46.832Z,22.33
2019-02-04T04:20:20.382Z,22.17
2019-02-04T04:22:53.304Z,22.37
2019-02-04T04:25:33.044Z,20.70
2019-02-04T04:28:09.148Z,22.30
2019-02-04T04:30:48.553Z,21.43
2019-02-04T04:33:26.865Z,21.83
2019-02-04T04:36:08.758Z,22.13
2019-02-04T04:38:47.327Z,22.80
2019-02-04T04:41:38.668Z,22.60
2019-02-04T04:44:30.215Z,20.43
2019-02-04T04:47:13.398Z,21.93
2019-02-04T04:49:49.393Z,20.67
2019-02-04T04:52:24.427Z,20.87
2019-02-04T04:54:59.450Z,19.60
2019-02-04T04:57:39.002Z,20.23
2019-02-04T05:00:18.011Z,19.60
2019-02-04T05:02:54.341Z,22.73
2019-02-04T05:09:26.145Z,19.87
2019-02-04T05:12:01.310Z,20.00
2019-02-04T05:14:38.485Z,21.13
2019-02-04T05:17:17.985Z,21.30
2019-02-04T05:20:28.050Z,18.57
2019-02-04T05:22:59.587Z,19.57
2019-02-04T05:25:36.851Z,18.17
2019-02-04T05:28:22.180Z,20.57
2019-02-04T05:30:57.598Z,20.87
2019-02-04T05:33:32.421Z,19.70
2019-02-04T05:36:11.724Z,19.87
2019-02-04T05:38:47.926Z,19.43
2019-02-04T05:41:28.375Z,22.77
2019-02-04T05:44:09.972Z,19.63
2019-02-04T05:46:52.186Z,19.90
2019-02-04T05:49:19.425Z,20.50
2019-02-04T05:52:02.402Z,19.53
2019-02-04T05:54:38.816Z,23.25
2019-02-04T05:57:22.565Z,24.30
2019-02-04T06:00:08.366Z,22.33
2019-02-04T06:02:43.695Z,24.20
2019-02-04T06:05:16.945Z,22.33
2019-02-04T06:07:48.773Z,20.83
2019-02-04T06:10:34.769Z,20.83
2019-02-04T06:13:13.361Z,21.00
2019-02-04T06:16:01.396Z,18.40
2019-02-04T06:18:41.697Z,18.30
2019-02-04T06:21:29.848Z,17.93
2019-02-04T06:24:05.108Z,17.90
2019-02-04T06:26:53.372Z,18.17
2019-02-04T06:29:36.518Z,18.60
2019-02-04T06:32:17.688Z,18.83
2019-02-04T06:34:58.426Z,18.07
2019-02-04T06:41:05.397Z,18.10
2019-02-04T06:47:01.462Z,16.20
2019-02-04T06:50:24.257Z,19.23
2019-02-04T06:53:49.631Z,18.27
2019-02-04T06:56:58.001Z,19.97
2019-02-04T07:00:11.039Z,17.50
2019-02-04T07:03:04.861Z,17.10
2019-02-04T07:05:54.578Z,19.73
2019-02-04T07:09:10.293Z,17.33
2019-02-04T07:12:07.293Z,18.10
2019-02-04T07:14:56.129Z,16.47
2019-02-04T07:17:49.219Z,16.80
2019-02-04T07:20:52.998Z,18.77
2019-02-04T07:23:50.104Z,18.07
2019-02-04T07:26:56.232Z,19.20
2019-02-04T07:29:33.790Z,16.43
2019-02-04T07:32:29.668Z,16.33
2019-02-04T07:35:15.481Z,17.83
2019-02-04T07:38:22.559Z,16.80
2019-02-04T07:41:34.622Z,15.67
2019-02-04T07:44:33.861Z,16.07
2019-02-04T07:47:37.749Z,15.87
2019-02-04T07:50:39.552Z,15.87
2019-02-04T07:54:13.470Z,16.07
2019-02-04T07:57:13.941Z,16.90
2019-02-04T07:59:59.356Z,16.37
2019-02-04T08:02:59.721Z,14.30
2019-02-04T08:22:55.361Z,15.03
2019-02-04T08:29:49.613Z,16.10
2019-02-04T08:33:17.202Z,15.17
2019-02-04T08:41:03.470Z,14.47
2019-02-04T08:44:27.958Z,14.90
2019-02-04T08:51:41.812Z,15.48
2019-02-04T08:55:18.830Z,16.67
2019-02-04T08:58:54.359Z,14.93
2019-02-04T09:17:56.649Z,13.87
2019-02-04T09:21:03.831Z,14.17
2019-02-04T09:31:21.078Z,14.20
2019-02-04T09:34:47.602Z,15.40
2019-02-04T09:42:10.967Z,13.73
2019-02-04T09:49:34.039Z,15.90
2019-02-04T09:56:38.590Z,14.00
2019-02-04T10:00:32.408Z,14.10
2019-02-04T10:04:00.924Z,14.47
2019-02-04T10:06:55.326Z,13.57
2019-02-04T10:10:23.573Z,13.77
2019-02-04T10:13:32.175Z,13.33
2019-02-04T10:16:33.307Z,15.07
2019-02-04T10:23:51.776Z,14.13
2019-02-04T10:27:29.945Z,12.93
2019-02-04T11:01:10.287Z,12.50
2019-02-04T11:08:55.797Z,12.77
2019-02-04T11:16:37.405Z,16.40
2019-02-04T11:27:00.314Z,11.50
2019-02-04T11:35:10.563Z,11.57
2019-02-04T11:54:28.029Z,12.53
2019-02-04T11:57:03.759Z,12.60
2019-02-04T12:00:41.711Z,9.70
2019-02-04T12:04:19.698Z,13.10
2019-02-04T12:15:42.090Z,10.40
2019-02-04T12:31:08.949Z,10.57
2019-02-04T12:34:33.850Z,10.20
2019-02-04T12:44:54.700Z,9.50
2019-02-04T12:55:49.924Z,8.77
2019-02-04T12:58:55.972Z,7.23
2019-02-04T13:06:27.317Z,8.73
2019-02-04T13:09:43.318Z,6.97
2019-02-04T13:16:53.094Z,6.63
2019-02-04T13:27:30.333Z,7.00
2019-02-04T13:30:18.229Z,6.60
2019-02-04T13:36:33.598Z,5.43
2019-02-04T13:40:40.676Z,5.17
2019-02-04T13:47:33.198Z,4.90
2019-02-04T13:50:34.714Z,6.00
2019-02-04T13:56:36.729Z,5.53
2019-02-04T13:59:43.781Z,5.80
2019-02-04T14:02:58.843Z,6.75
2019-02-04T14:08:41.867Z,6.73
2019-02-04T14:11:58.384Z,6.93
2019-02-04T14:21:28.281Z,6.40
2019-02-04T14:24:26.316Z,6.03
2019-02-04T14:34:32.906Z,5.70
2019-02-04T14:37:34.294Z,7.07
2019-02-04T14:40:38.232Z,7.20
2019-02-04T14:47:39.490Z,6.40
2019-02-04T14:51:22.643Z,5.97
2019-02-04T14:55:06.207Z,5.23
2019-02-04T14:59:01.440Z,5.37
2019-02-04T15:11:04.972Z,6.70
2019-02-04T15:21:52.939Z,6.73
2019-02-04T15:51:08.915Z,7.63
2019-02-04T15:54:39.260Z,6.70
2019-02-04T16:02:06.256Z,7.20
2019-02-04T17:37:48.921Z,4.80
2019-02-04T17:40:41.661Z,4.47
2019-02-04T17:44:11.649Z,4.30
2019-02-04T17:47:30.121Z,4.33
2019-02-04T17:50:30.740Z,5.00
2019-02-04T17:53:41.094Z,5.57
2019-02-04T17:56:40.278Z,6.07
2019-02-04T17:59:47.185Z,6.50
2019-02-04T18:02:42.094Z,6.10
2019-02-04T18:09:30.941Z,5.47
2019-02-04T18:13:15.348Z,5.77
2019-02-04T18:24:13.524Z,4.43
2019-02-04T18:30:39.905Z,3.97
2019-02-04T18:34:09.942Z,4.30
2019-02-04T18:37:34.309Z,4.50
2019-02-04T18:40:34.389Z,5.33
2019-02-04T18:44:00.578Z,6.23
2019-02-04T18:47:39.202Z,6.00
2019-02-04T18:54:14.308Z,5.17
2019-02-04T18:57:10.688Z,7.00
2019-02-04T19:00:23.409Z,4.93
2019-02-04T19:03:45.058Z,5.50
2019-02-04T19:10:47.766Z,5.73
2019-02-04T19:14:30.493Z,5.67
2019-02-04T19:18:02.093Z,5.43
2019-02-04T19:24:20.632Z,6.42
2019-02-04T19:27:08.673Z,6.07
2019-02-04T19:30:11.355Z,7.50
2019-02-04T19:32:55.396Z,7.63
2019-02-04T19:36:30.058Z,6.00
2019-02-04T19:39:49.062Z,6.10
2019-02-04T19:43:03.098Z,6.27
2019-02-04T19:46:08.373Z,5.43
2019-02-04T19:48:48.432Z,6.57
2019-02-04T19:55:11.054Z,6.50
2019-02-04T19:58:34.397Z,5.43
2019-02-04T20:02:13.642Z,6.23
2019-02-04T20:12:47.650Z,7.57
2019-02-04T20:19:18.716Z,5.40
2019-02-04T20:22:22.989Z,5.40
2019-02-04T20:25:33.486Z,5.13
2019-02-04T20:31:43.834Z,3.70
2019-02-04T20:34:48.560Z,5.00
2019-02-04T20:37:41.819Z,4.00
2019-02-04T20:41:43.947Z,4.87
2019-02-04T20:44:53.886Z,4.50
2019-02-04T20:48:11.664Z,4.73
2019-02-04T20:51:21.992Z,5.00
2019-02-04T20:54:22.962Z,7.70
2019-02-04T20:57:57.316Z,15.07
2019-02-04T21:49:33.145Z,4.97
2019-02-04T21:52:41.651Z,4.60
2019-02-04T21:55:41.491Z,5.60
2019-02-04T21:58:39.315Z,7.27
2019-02-04T22:01:25.428Z,7.30
2019-02-04T22:04:13.457Z,8.20
2019-02-04T22:06:56.597Z,6.60
2019-02-04T22:09:43.560Z,6.23
2019-02-04T22:12:31.665Z,4.60
2019-02-04T22:15:46.499Z,5.60
2019-02-04T22:17:50.259Z,6.20
2019-02-04T22:20:26.443Z,6.00
2019-02-04T22:23:06.053Z,6.13
2019-02-04T22:25:42.670Z,4.90
2019-02-04T22:28:30.520Z,4.40
2019-02-04T22:31:27.249Z,4.37
2019-02-04T22:34:05.304Z,5.60
2019-02-04T22:36:51.542Z,5.50
2019-02-04T22:39:35.675Z,6.20
2019-02-04T22:42:19.246Z,5.40
2019-02-04T22:45:16.952Z,6.70
2019-02-04T22:48:11.939Z,7.97
2019-02-04T22:50:49.381Z,7.03
2019-02-04T22:53:33.512Z,8.13
2019-02-04T22:56:34.871Z,5.87
2019-02-04T22:59:51.275Z,6.50
2019-02-04T23:02:54.089Z,5.80
2019-02-04T23:05:46.922Z,7.33
2019-02-04T23:08:19.651Z,6.37
2019-02-04T23:10:58.040Z,6.00
2019-02-04T23:13:33.262Z,6.80
2019-02-04T23:16:09.588Z,6.23
2019-02-04T23:19:15.397Z,7.20
2019-02-04T23:21:51.792Z,5.90
2019-02-04T23:24:40.012Z,6.57
2019-02-04T23:27:23.521Z,6.33
2019-02-04T23:30:19.619Z,6.60
2019-02-04T23:33:01.763Z,6.80
2019-02-04T23:35:38.189Z,7.40
2019-02-04T23:38:13.173Z,9.30
2019-02-04T23:40:44.558Z,8.47
2019-02-04T23:43:28.265Z,8.17
2019-02-04T23:46:13.467Z,7.50
2019-02-04T23:48:47.028Z,9.10
2019-02-04T23:51:20.588Z,10.40
2019-02-04T23:54:02.522Z,11.50
2019-02-04T23:56:40.020Z,12.67
2019-02-04T23:59:43.093Z,11.70
